Greenfield, Minnesota
Current Conditions -  °F | °C
As of 1:55 AM on Wednesday 26 Nov 2014 (Local Time) from KCFE Reporting Station
Overcast Overcast  
Wind Chill: 18°   Ceiling: 4700
Heat Index: 25°   Visibility: 10mi
Dew Point: 18°   Wind: 6mph
Humidity: 75%   Direction: 70°ENE
Pressure: 30.01"   Gusts: NA
Location:  45.1192°N, 93.7982°W
Report Text: KCFE 260755Z AUTO 07005KT 10SM BKN047 OVC055 M04/M08 A3001 RMK AO2 T10411080
Loading
Personal Weather Stations






























Interactive Weather Map New forecast layout! Learn more

10-Day Weather Forecast

Advertisements
Track Severe Weather on mobile